sensor_id;sensor_type;location;lat;lon;timestamp;pressure;altitude;pressure_sealevel;temperature;humidity
1401;BME280;46518;48.842;8.926;2023-08-07T00:00:05;96965.44;;;10.86;100.00
1401;BME280;46518;48.842;8.926;2023-08-07T00:02:36;96969.09;;;10.85;100.00
1401;BME280;46518;48.842;8.926;2023-08-07T00:05:06;96966.22;;;10.87;100.00
1401;BME280;46518;48.842;8.926;2023-08-07T00:07:38;96978.59;;;10.86;100.00
1401;BME280;46518;48.842;8.926;2023-08-07T00:10:07;96973.84;;;10.88;100.00
1401;BME280;46518;48.842;8.926;2023-08-07T00:12:35;96962.50;;;10.83;100.00
1401;BME280;46518;48.842;8.926;2023-08-07T00:15:05;96970.19;;;10.89;100.00
1401;BME280;46518;48.842;8.926;2023-08-07T00:17:33;96978.84;;;10.85;100.00
1401;BME280;46518;48.842;8.926;2023-08-07T00:20:02;96982.31;;;10.90;100.00
1401;BME280;46518;48.842;8.926;2023-08-07T00:22:31;96980.41;;;10.86;100.00
1401;BME280;46518;48.842;8.926;2023-08-07T00:25:00;96978.38;;;10.93;100.00
1401;BME280;46518;48.842;8.926;2023-08-07T00:27:28;96981.28;;;10.91;100.00
1401;BME280;46518;48.842;8.926;2023-08-07T00:29:58;96968.38;;;10.95;100.00
1401;BME280;46518;48.842;8.926;2023-08-07T00:32:27;96982.34;;;10.95;100.00
1401;BME280;46518;48.842;8.926;2023-08-07T00:34:55;96981.88;;;10.98;100.00
1401;BME280;46518;48.842;8.926;2023-08-07T00:37:23;96990.59;;;11.04;100.00
1401;BME280;46518;48.842;8.926;2023-08-07T00:39:53;96988.72;;;10.99;100.00
1401;BME280;46518;48.842;8.926;2023-08-07T00:42:21;96993.47;;;11.02;100.00
1401;BME280;46518;48.842;8.926;2023-08-07T00:44:49;96987.38;;;10.97;100.00
1401;BME280;46518;48.842;8.926;2023-08-07T00:47:17;96991.88;;;11.01;100.00
1401;BME280;46518;48.842;8.926;2023-08-07T00:49:46;96990.28;;;11.00;100.00
1401;BME280;46518;48.842;8.926;2023-08-07T00:52:15;96988.16;;;10.97;100.00
1401;BME280;46518;48.842;8.926;2023-08-07T00:54:46;96992.91;;;11.00;100.00
1401;BME280;46518;48.842;8.926;2023-08-07T00:57:16;96973.16;;;10.98;100.00
1401;BME280;46518;48.842;8.926;2023-08-07T00:59:50;96994.53;;;11.01;100.00
1401;BME280;46518;48.842;8.926;2023-08-07T01:02:19;97001.72;;;11.11;100.00
1401;BME280;46518;48.842;8.926;2023-08-07T01:04:48;96985.56;;;11.02;100.00
1401;BME280;46518;48.842;8.926;2023-08-07T01:07:17;96995.16;;;11.14;100.00
1401;BME280;46518;48.842;8.926;2023-08-07T01:09:46;97000.13;;;11.10;100.00
1401;BME280;46518;48.842;8.926;2023-08-07T01:12:19;97009.63;;;11.11;100.00
1401;BME280;46518;48.842;8.926;2023-08-07T01:14:51;96997.72;;;11.04;100.00
1401;BME280;46518;48.842;8.926;2023-08-07T01:17:22;97008.00;;;11.10;100.00
1401;BME280;46518;48.842;8.926;2023-08-07T01:19:51;97011.94;;;11.08;100.00
1401;BME280;46518;48.842;8.926;2023-08-07T01:22:21;96989.72;;;10.93;100.00
1401;BME280;46518;48.842;8.926;2023-08-07T01:24:50;97014.84;;;11.06;100.00
1401;BME280;46518;48.842;8.926;2023-08-07T01:27:30;97001.63;;;11.01;100.00
1401;BME280;46518;48.842;8.926;2023-08-07T01:30:08;97008.53;;;11.07;100.00
1401;BME280;46518;48.842;8.926;2023-08-07T01:32:43;97004.84;;;11.08;100.00
1401;BME280;46518;48.842;8.926;2023-08-07T01:35:16;97014.88;;;11.11;100.00
1401;BME280;46518;48.842;8.926;2023-08-07T01:37:46;97013.25;;;11.05;100.00
1401;BME280;46518;48.842;8.926;2023-08-07T01:40:16;97021.66;;;11.02;100.00
1401;BME280;46518;48.842;8.926;2023-08-07T01:42:45;97023.81;;;11.10;100.00
1401;BME280;46518;48.842;8.926;2023-08-07T01:45:21;97028.50;;;11.03;100.00
1401;BME280;46518;48.842;8.926;2023-08-07T01:47:49;97021.69;;;11.07;100.00
1401;BME280;46518;48.842;8.926;2023-08-07T01:50:18;97028.50;;;11.03;100.00
1401;BME280;46518;48.842;8.926;2023-08-07T01:52:48;97015.63;;;11.07;100.00
1401;BME280;46518;48.842;8.926;2023-08-07T01:55:18;97018.56;;;11.10;100.00
1401;BME280;46518;48.842;8.926;2023-08-07T01:57:50;97022.72;;;11.01;100.00
1401;BME280;46518;48.842;8.926;2023-08-07T02:00:19;97032.72;;;11.04;100.00
1401;BME280;46518;48.842;8.926;2023-08-07T02:02:47;97029.34;;;11.09;100.00
1401;BME280;46518;48.842;8.926;2023-08-07T02:05:16;97033.75;;;11.03;100.00
1401;BME280;46518;48.842;8.926;2023-08-07T02:07:44;97031.75;;;11.15;100.00
1401;BME280;46518;48.842;8.926;2023-08-07T02:10:14;97035.50;;;11.19;100.00
1401;BME280;46518;48.842;8.926;2023-08-07T02:12:42;97046.50;;;11.11;100.00
1401;BME280;46518;48.842;8.926;2023-08-07T02:15:11;97045.44;;;11.12;100.00
1401;BME280;46518;48.842;8.926;2023-08-07T02:17:39;97038.28;;;11.08;100.00
1401;BME280;46518;48.842;8.926;2023-08-07T02:20:09;97040.38;;;11.06;100.00
1401;BME280;46518;48.842;8.926;2023-08-07T02:22:38;97049.03;;;11.01;100.00
1401;BME280;46518;48.842;8.926;2023-08-07T02:25:07;97042.72;;;11.02;100.00
1401;BME280;46518;48.842;8.926;2023-08-07T02:27:39;97031.63;;;11.00;100.00
1401;BME280;46518;48.842;8.926;2023-08-07T02:30:07;97033.75;;;11.03;100.00
1401;BME280;46518;48.842;8.926;2023-08-07T02:32:36;97036.16;;;11.05;100.00
1401;BME280;46518;48.842;8.926;2023-08-07T02:35:04;97017.91;;;10.98;100.00
1401;BME280;46518;48.842;8.926;2023-08-07T02:37:33;97045.41;;;11.07;100.00
1401;BME280;46518;48.842;8.926;2023-08-07T02:40:01;97041.13;;;11.01;100.00
1401;BME280;46518;48.842;8.926;2023-08-07T02:42:29;97043.16;;;10.94;100.00
1401;BME280;46518;48.842;8.926;2023-08-07T02:44:59;97038.19;;;10.97;100.00
1401;BME280;46518;48.842;8.926;2023-08-07T02:47:27;97041.63;;;10.98;100.00
1401;BME280;46518;48.842;8.926;2023-08-07T02:49:55;97040.03;;;10.97;100.00
1401;BME280;46518;48.842;8.926;2023-08-07T02:52:24;97051.75;;;11.11;100.00
1401;BME280;46518;48.842;8.926;2023-08-07T02:54:52;97045.34;;;11.02;100.00
1401;BME280;46518;48.842;8.926;2023-08-07T02:57:20;97051.22;;;11.09;100.00
1401;BME280;46518;48.842;8.926;2023-08-07T02:59:49;97050.91;;;11.06;100.00
1401;BME280;46518;48.842;8.926;2023-08-07T03:02:18;97061.16;;;11.02;100.00
1401;BME280;46518;48.842;8.926;2023-08-07T03:04:47;97054.31;;;11.01;99.82
1401;BME280;46518;48.842;8.926;2023-08-07T03:07:15;97032.59;;;10.89;100.00
1401;BME280;46518;48.842;8.926;2023-08-07T03:09:45;97041.88;;;10.96;99.97
1401;BME280;46518;48.842;8.926;2023-08-07T03:12:13;97046.84;;;10.93;100.00
1401;BME280;46518;48.842;8.926;2023-08-07T03:14:42;97067.38;;;10.91;100.00
1401;BME280;46518;48.842;8.926;2023-08-07T03:17:10;97057.88;;;10.90;100.00
1401;BME280;46518;48.842;8.926;2023-08-07T03:19:42;97055.03;;;10.96;100.00
1401;BME280;46518;48.842;8.926;2023-08-07T03:22:12;97044.75;;;10.95;100.00
1401;BME280;46518;48.842;8.926;2023-08-07T03:24:40;97049.00;;;10.96;100.00
1401;BME280;46518;48.842;8.926;2023-08-07T03:27:08;97049.03;;;11.01;100.00
1401;BME280;46518;48.842;8.926;2023-08-07T03:29:36;97059.72;;;10.89;100.00
1401;BME280;46518;48.842;8.926;2023-08-07T03:32:05;97047.88;;;10.92;100.00
1401;BME280;46518;48.842;8.926;2023-08-07T03:34:35;97049.97;;;10.90;100.00
1401;BME280;46518;48.842;8.926;2023-08-07T03:37:06;97044.50;;;10.96;100.00
1401;BME280;46518;48.842;8.926;2023-08-07T03:39:34;97051.56;;;10.91;100.00
1401;BME280;46518;48.842;8.926;2023-08-07T03:42:03;97054.31;;;11.01;100.00
1401;BME280;46518;48.842;8.926;2023-08-07T03:44:31;97057.97;;;11.00;100.00
1401;BME280;46518;48.842;8.926;2023-08-07T03:47:01;97054.53;;;10.99;100.00
1401;BME280;46518;48.842;8.926;2023-08-07T03:49:30;97048.53;;;11.04;99.96
1401;BME280;46518;48.842;8.926;2023-08-07T03:51:58;97055.38;;;11.05;100.00
1401;BME280;46518;48.842;8.926;2023-08-07T03:54:28;97051.13;;;10.99;99.64
1401;BME280;46518;48.842;8.926;2023-08-07T03:56:57;97048.72;;;10.97;99.90
1401;BME280;46518;48.842;8.926;2023-08-07T03:59:26;97050.91;;;11.06;99.31
1401;BME280;46518;48.842;8.926;2023-08-07T04:01:54;97051.13;;;10.99;98.76
1401;BME280;46518;48.842;8.926;2023-08-07T04:04:22;97058.75;;;11.00;97.77
1401;BME280;46518;48.842;8.926;2023-08-07T04:06:51;97057.97;;;11.00;97.99
1401;BME280;46518;48.842;8.926;2023-08-07T04:09:20;97053.25;;;11.02;97.16
1401;BME280;46518;48.842;8.926;2023-08-07T04:11:49;97064.84;;;11.01;97.47
1401;BME280;46518;48.842;8.926;2023-08-07T04:14:18;97053.25;;;11.02;98.09
1401;BME280;46518;48.842;8.926;2023-08-07T04:16:46;97061.75;;;11.09;97.87
1401;BME280;46518;48.842;8.926;2023-08-07T04:19:14;97054.63;;;11.10;96.28
1401;BME280;46518;48.842;8.926;2023-08-07T04:21:43;97061.25;;;11.12;97.71
1401;BME280;46518;48.842;8.926;2023-08-07T04:24:11;97068.91;;;11.14;97.01
1401;BME280;46518;48.842;8.926;2023-08-07T04:26:39;97064.19;;;11.16;95.84
1401;BME280;46518;48.842;8.926;2023-08-07T04:29:08;97057.91;;;11.22;97.55
1401;BME280;46518;48.842;8.926;2023-08-07T04:31:37;97069.03;;;11.29;97.88
1401;BME280;46518;48.842;8.926;2023-08-07T04:34:05;97078.53;;;11.30;97.70
1401;BME280;46518;48.842;8.926;2023-08-07T04:36:34;97068.72;;;11.26;98.15
1401;BME280;46518;48.842;8.926;2023-08-07T04:39:02;97072.38;;;11.19;98.76
1401;BME280;46518;48.842;8.926;2023-08-07T04:41:30;97076.94;;;11.29;97.99
1401;BME280;46518;48.842;8.926;2023-08-07T04:43:59;97082.16;;;11.24;97.50
1401;BME280;46518;48.842;8.926;2023-08-07T04:46:28;97070.75;;;11.13;98.57
1401;BME280;46518;48.842;8.926;2023-08-07T04:48:57;97073.72;;;11.22;98.83
1401;BME280;46518;48.842;8.926;2023-08-07T04:51:26;97090.84;;;11.25;99.29
1401;BME280;46518;48.842;8.926;2023-08-07T04:53:57;97089.81;;;11.26;98.93
1401;BME280;46518;48.842;8.926;2023-08-07T04:56:25;97075.88;;;11.30;99.23
1401;BME280;46518;48.842;8.926;2023-08-07T04:58:54;97073.72;;;11.22;99.58
1401;BME280;46518;48.842;8.926;2023-08-07T05:01:22;97069.50;;;11.21;99.24
1401;BME280;46518;48.842;8.926;2023-08-07T05:03:52;97090.66;;;11.31;99.49
1401;BME280;46518;48.842;8.926;2023-08-07T05:06:20;97079.16;;;11.42;98.46
1401;BME280;46518;48.842;8.926;2023-08-07T05:08:49;97093.91;;;11.38;97.90
1401;BME280;46518;48.842;8.926;2023-08-07T05:11:17;97093.13;;;11.43;98.53
1401;BME280;46518;48.842;8.926;2023-08-07T05:13:47;97089.13;;;11.40;97.81
1401;BME280;46518;48.842;8.926;2023-08-07T05:16:15;97088.47;;;11.55;98.85
1401;BME280;46518;48.842;8.926;2023-08-07T05:18:46;97085.63;;;11.62;98.11
1401;BME280;46518;48.842;8.926;2023-08-07T05:21:18;97097.94;;;11.51;97.09
1401;BME280;46518;48.842;8.926;2023-08-07T05:23:46;97087.66;;;11.50;95.34
1401;BME280;46518;48.842;8.926;2023-08-07T05:26:16;97100.63;;;11.56;96.44
1401;BME280;46518;48.842;8.926;2023-08-07T05:28:44;97095.88;;;11.53;95.62
1401;BME280;46518;48.842;8.926;2023-08-07T05:31:13;97103.06;;;11.68;95.23
1401;BME280;46518;48.842;8.926;2023-08-07T05:33:41;97102.56;;;11.66;95.21
1401;BME280;46518;48.842;8.926;2023-08-07T05:36:09;97105.38;;;11.59;94.36
1401;BME280;46518;48.842;8.926;2023-08-07T05:38:38;97107.34;;;11.74;96.33
1401;BME280;46518;48.842;8.926;2023-08-07T05:41:08;97110.72;;;11.70;95.10
1401;BME280;46518;48.842;8.926;2023-08-07T05:43:36;97108.34;;;11.68;95.41
1401;BME280;46518;48.842;8.926;2023-08-07T05:46:05;97119.75;;;11.74;93.47
1401;BME280;46518;48.842;8.926;2023-08-07T05:48:33;97114.72;;;11.72;94.04
1401;BME280;46518;48.842;8.926;2023-08-07T05:51:01;97114.16;;;11.70;94.30
1401;BME280;46518;48.842;8.926;2023-08-07T05:53:29;97124.25;;;11.78;93.51
1401;BME280;46518;48.842;8.926;2023-08-07T05:55:59;97131.28;;;11.68;93.78
1401;BME280;46518;48.842;8.926;2023-08-07T05:58:27;97119.47;;;11.75;92.89
1401;BME280;46518;48.842;8.926;2023-08-07T06:00:55;97124.25;;;11.78;93.72
1401;BME280;46518;48.842;8.926;2023-08-07T06:03:24;97122.44;;;11.84;94.80
1401;BME280;46518;48.842;8.926;2023-08-07T06:05:52;97129.56;;;11.83;94.27
1401;BME280;46518;48.842;8.926;2023-08-07T06:08:21;97128.81;;;11.88;95.03
1401;BME280;46518;48.842;8.926;2023-08-07T06:10:49;97129.69;;;11.94;94.48
1401;BME280;46518;48.842;8.926;2023-08-07T06:13:19;97122.19;;;11.85;94.16
1401;BME280;46518;48.842;8.926;2023-08-07T06:16:02;97129.38;;;11.90;93.77
1401;BME280;46518;48.842;8.926;2023-08-07T06:18:30;97132.03;;;11.95;94.32
1401;BME280;46518;48.842;8.926;2023-08-07T06:20:58;97128.91;;;11.98;94.70
1401;BME280;46518;48.842;8.926;2023-08-07T06:23:27;97142.16;;;12.08;92.95
1401;BME280;46518;48.842;8.926;2023-08-07T06:25:55;97137.72;;;12.14;92.99
1401;BME280;46518;48.842;8.926;2023-08-07T06:28:27;97142.44;;;12.12;93.22
1401;BME280;46518;48.842;8.926;2023-08-07T06:31:00;97144.31;;;12.17;93.91
1401;BME280;46518;48.842;8.926;2023-08-07T06:33:28;97147.22;;;12.15;93.55
1401;BME280;46518;48.842;8.926;2023-08-07T06:35:57;97148.84;;;12.21;93.50
1401;BME280;46518;48.842;8.926;2023-08-07T06:38:24;97145.13;;;12.17;91.04
1401;BME280;46518;48.842;8.926;2023-08-07T06:40:52;97139.09;;;12.22;91.79
1401;BME280;46518;48.842;8.926;2023-08-07T06:43:21;97148.56;;;12.23;90.11
1401;BME280;46518;48.842;8.926;2023-08-07T06:45:51;97149.16;;;12.30;91.24
1401;BME280;46518;48.842;8.926;2023-08-07T06:48:20;97148.94;;;12.37;91.54
1401;BME280;46518;48.842;8.926;2023-08-07T06:50:48;97147.31;;;12.30;83.70
1401;BME280;46518;48.842;8.926;2023-08-07T06:53:16;97141.78;;;12.32;86.09
1401;BME280;46518;48.842;8.926;2023-08-07T06:55:45;97150.22;;;12.29;85.45
1401;BME280;46518;48.842;8.926;2023-08-07T06:58:13;97144.59;;;12.20;85.03
1401;BME280;46518;48.842;8.926;2023-08-07T07:00:41;97142.53;;;12.27;83.98
1401;BME280;46518;48.842;8.926;2023-08-07T07:03:11;97141.19;;;12.25;84.25
1401;BME280;46518;48.842;8.926;2023-08-07T07:05:39;97147.06;;;12.32;85.93
1401;BME280;46518;48.842;8.926;2023-08-07T07:08:09;97150.44;;;12.22;84.90
1401;BME280;46518;48.842;8.926;2023-08-07T07:10:37;97156.25;;;12.24;84.15
1401;BME280;46518;48.842;8.926;2023-08-07T07:13:06;97160.44;;;12.20;86.14
1401;BME280;46518;48.842;8.926;2023-08-07T07:15:36;97156.50;;;12.23;87.24
1401;BME280;46518;48.842;8.926;2023-08-07T07:18:04;97165.50;;;12.27;89.09
1401;BME280;46518;48.842;8.926;2023-08-07T07:20:34;97179.78;;;12.31;86.99
1401;BME280;46518;48.842;8.926;2023-08-07T07:23:02;97172.50;;;12.48;86.16
1401;BME280;46518;48.842;8.926;2023-08-07T07:25:31;97178.41;;;12.66;87.64
1401;BME280;46518;48.842;8.926;2023-08-07T07:28:01;97164.22;;;12.87;88.92
1401;BME280;46518;48.842;8.926;2023-08-07T07:30:30;97169.06;;;13.06;86.76
1401;BME280;46518;48.842;8.926;2023-08-07T07:32:58;97161.09;;;12.90;86.21
1401;BME280;46518;48.842;8.926;2023-08-07T07:35:26;97172.69;;;12.94;81.96
1401;BME280;46518;48.842;8.926;2023-08-07T07:37:59;97188.88;;;13.03;82.16
1401;BME280;46518;48.842;8.926;2023-08-07T07:40:27;97167.13;;;12.86;83.46
1401;BME280;46518;48.842;8.926;2023-08-07T07:42:55;97186.72;;;13.05;84.19
1401;BME280;46518;48.842;8.926;2023-08-07T07:45:24;97189.56;;;12.78;81.03
1401;BME280;46518;48.842;8.926;2023-08-07T07:47:52;97205.41;;;12.78;81.46
1401;BME280;46518;48.842;8.926;2023-08-07T07:50:20;97204.59;;;12.83;83.75
1401;BME280;46518;48.842;8.926;2023-08-07T07:52:49;97205.22;;;13.00;82.94
1401;BME280;46518;48.842;8.926;2023-08-07T07:55:19;97212.50;;;12.78;83.97
1401;BME280;46518;48.842;8.926;2023-08-07T07:57:47;97214.09;;;12.73;81.95
1401;BME280;46518;48.842;8.926;2023-08-07T08:00:16;97213.81;;;12.75;82.88
1401;BME280;46518;48.842;8.926;2023-08-07T08:02:46;97214.16;;;12.89;85.07
1401;BME280;46518;48.842;8.926;2023-08-07T08:05:14;97212.25;;;12.79;84.54
1401;BME280;46518;48.842;8.926;2023-08-07T08:07:43;97189.47;;;12.68;83.60
1401;BME280;46518;48.842;8.926;2023-08-07T08:10:11;97210.00;;;13.03;84.52
1401;BME280;46518;48.842;8.926;2023-08-07T08:12:43;97217.69;;;13.15;80.57
1401;BME280;46518;48.842;8.926;2023-08-07T08:15:12;97199.50;;;13.24;79.20
1401;BME280;46518;48.842;8.926;2023-08-07T08:17:40;97220.19;;;13.47;80.48
1401;BME280;46518;48.842;8.926;2023-08-07T08:20:09;97205.41;;;13.56;75.62
1401;BME280;46518;48.842;8.926;2023-08-07T08:22:37;97229.00;;;13.73;71.58
1401;BME280;46518;48.842;8.926;2023-08-07T08:25:06;97215.47;;;13.70;70.82
1401;BME280;46518;48.842;8.926;2023-08-07T08:27:35;97212.84;;;13.80;71.29
1401;BME280;46518;48.842;8.926;2023-08-07T08:30:08;97223.16;;;13.71;73.89
1401;BME280;46518;48.842;8.926;2023-08-07T08:32:36;97228.19;;;13.73;74.65
1401;BME280;46518;48.842;8.926;2023-08-07T08:35:08;97225.00;;;13.71;73.49
1401;BME280;46518;48.842;8.926;2023-08-07T08:37:37;97224.25;;;13.80;72.40
1401;BME280;46518;48.842;8.926;2023-08-07T08:40:06;97225.81;;;13.81;71.99
1401;BME280;46518;48.842;8.926;2023-08-07T08:42:37;97240.13;;;13.91;73.25
1401;BME280;46518;48.842;8.926;2023-08-07T08:45:09;97235.88;;;13.85;69.05
1401;BME280;46518;48.842;8.926;2023-08-07T08:47:38;97226.88;;;13.80;72.40
1401;BME280;46518;48.842;8.926;2023-08-07T08:50:09;97231.13;;;13.97;73.56
1401;BME280;46518;48.842;8.926;2023-08-07T08:52:41;97239.06;;;14.07;71.18
1401;BME280;46518;48.842;8.926;2023-08-07T08:55:11;97234.28;;;14.14;72.89
1401;BME280;46518;48.842;8.926;2023-08-07T08:57:40;97227.94;;;14.31;71.13
1401;BME280;46518;48.842;8.926;2023-08-07T09:00:11;97224.00;;;14.13;68.42
1401;BME280;46518;48.842;8.926;2023-08-07T09:02:47;97215.78;;;13.99;66.81
1401;BME280;46518;48.842;8.926;2023-08-07T09:05:17;97240.38;;;14.05;67.38
1401;BME280;46518;48.842;8.926;2023-08-07T09:07:46;97225.81;;;14.17;68.46
1401;BME280;46518;48.842;8.926;2023-08-07T09:10:16;97224.22;;;14.42;69.78
1401;BME280;46518;48.842;8.926;2023-08-07T09:12:53;97233.22;;;14.51;72.32
1401;BME280;46518;48.842;8.926;2023-08-07T09:15:27;97239.31;;;14.31;70.77
1401;BME280;46518;48.842;8.926;2023-08-07T09:17:58;97240.66;;;14.29;68.18
1401;BME280;46518;48.842;8.926;2023-08-07T09:20:26;97238.53;;;14.36;67.35
1401;BME280;46518;48.842;8.926;2023-08-07T09:22:55;97238.53;;;14.36;64.67
1401;BME280;46518;48.842;8.926;2023-08-07T09:25:27;97247.28;;;14.31;66.72
1401;BME280;46518;48.842;8.926;2023-08-07T09:27:56;97250.72;;;14.21;66.79
1401;BME280;46518;48.842;8.926;2023-08-07T09:30:28;97255.47;;;14.24;65.82
1401;BME280;46518;48.842;8.926;2023-08-07T09:32:57;97261.56;;;14.25;66.07
1401;BME280;46518;48.842;8.926;2023-08-07T09:35:27;97264.19;;;14.20;70.90
1401;BME280;46518;48.842;8.926;2023-08-07T09:37:56;97271.88;;;14.32;68.57
1401;BME280;46518;48.842;8.926;2023-08-07T09:40:25;97273.47;;;14.28;70.04
1401;BME280;46518;48.842;8.926;2023-08-07T09:42:55;97270.31;;;14.41;69.43
1401;BME280;46518;48.842;8.926;2023-08-07T09:45:25;97269.25;;;14.37;66.20
1401;BME280;46518;48.842;8.926;2023-08-07T09:47:59;97271.34;;;14.24;65.82
1401;BME280;46518;48.842;8.926;2023-08-07T09:50:28;97256.78;;;14.22;66.60
1401;BME280;46518;48.842;8.926;2023-08-07T09:52:57;97250.19;;;14.19;68.22
1401;BME280;46518;48.842;8.926;2023-08-07T09:55:26;97257.56;;;14.28;65.68
1401;BME280;46518;48.842;8.926;2023-08-07T09:57:55;97262.91;;;14.53;66.15
1401;BME280;46518;48.842;8.926;2023-08-07T10:00:23;97256.53;;;14.54;66.85
1401;BME280;46518;48.842;8.926;2023-08-07T10:02:53;97256.50;;;14.75;63.92
1401;BME280;46518;48.842;8.926;2023-08-07T10:05:24;97271.88;;;14.62;62.26
1401;BME280;46518;48.842;8.926;2023-08-07T10:07:55;97251.97;;;14.96;65.95
1401;BME280;46518;48.842;8.926;2023-08-07T10:10:24;97248.53;;;14.95;62.90
1401;BME280;46518;48.842;8.926;2023-08-07T10:12:53;97258.63;;;14.83;62.04
1401;BME280;46518;48.842;8.926;2023-08-07T10:15:22;97259.91;;;15.01;61.73
1401;BME280;46518;48.842;8.926;2023-08-07T10:17:50;97257.50;;;15.04;62.56
1401;BME280;46518;48.842;8.926;2023-08-07T10:20:19;97256.47;;;14.95;61.05
1401;BME280;46518;48.842;8.926;2023-08-07T10:22:51;97261.75;;;15.05;60.50
1401;BME280;46518;48.842;8.926;2023-08-07T10:25:21;97255.16;;;14.87;59.22
1401;BME280;46518;48.842;8.926;2023-08-07T10:27:52;97262.59;;;14.80;62.92
1401;BME280;46518;48.842;8.926;2023-08-07T10:30:22;97264.44;;;14.85;61.11
1401;BME280;46518;48.842;8.926;2023-08-07T10:32:52;97281.16;;;14.85;60.44
1401;BME280;46518;48.842;8.926;2023-08-07T10:35:24;97273.22;;;14.80;59.55
1401;BME280;46518;48.842;8.926;2023-08-07T10:37:54;97286.69;;;14.89;61.38
1401;BME280;46518;48.842;8.926;2023-08-07T10:40:22;97271.53;;;15.00;63.06
1401;BME280;46518;48.842;8.926;2023-08-07T10:42:58;97277.63;;;15.16;62.35
1401;BME280;46518;48.842;8.926;2023-08-07T10:45:27;97269.69;;;15.05;61.78
1401;BME280;46518;48.842;8.926;2023-08-07T10:48:05;97269.19;;;14.98;62.13
1401;BME280;46518;48.842;8.926;2023-08-07T10:50:35;97265.50;;;14.89;62.03
1401;BME280;46518;48.842;8.926;2023-08-07T10:53:05;97275.81;;;14.96;64.24
1401;BME280;46518;48.842;8.926;2023-08-07T10:55:43;97280.59;;;14.94;62.64
1401;BME280;46518;48.842;8.926;2023-08-07T10:58:23;97275.03;;;14.95;63.44
1401;BME280;46518;48.842;8.926;2023-08-07T11:00:52;97283.50;;;14.92;61.08
1401;BME280;46518;48.842;8.926;2023-08-07T11:03:40;97284.81;;;14.89;62.37
1401;BME280;46518;48.842;8.926;2023-08-07T11:06:10;97286.44;;;14.80;63.09
1401;BME280;46518;48.842;8.926;2023-08-07T11:08:40;97290.41;;;14.88;62.49
1401;BME280;46518;48.842;8.926;2023-08-07T11:11:10;97297.00;;;15.01;64.68
1401;BME280;46518;48.842;8.926;2023-08-07T11:13:38;97286.63;;;15.09;65.92
1401;BME280;46518;48.842;8.926;2023-08-07T11:16:07;97288.44;;;15.24;64.53
1401;BME280;46518;48.842;8.926;2023-08-07T11:18:37;97287.13;;;15.22;65.28
1401;BME280;46518;48.842;8.926;2023-08-07T11:21:09;97297.75;;;15.12;63.33
1401;BME280;46518;48.842;8.926;2023-08-07T11:23:40;97295.94;;;14.97;65.04
1401;BME280;46518;48.842;8.926;2023-08-07T11:26:09;97296.75;;;14.82;63.30
1401;BME280;46518;48.842;8.926;2023-08-07T11:28:38;97298.88;;;14.85;64.73
1401;BME280;46518;48.842;8.926;2023-08-07T11:31:06;97307.34;;;14.92;64.75
1401;BME280;46518;48.842;8.926;2023-08-07T11:33:35;97307.34;;;14.87;65.21
1401;BME280;46518;48.842;8.926;2023-08-07T11:36:10;97309.75;;;14.83;66.40
1401;BME280;46518;48.842;8.926;2023-08-07T11:38:41;97309.19;;;14.97;66.80
1401;BME280;46518;48.842;8.926;2023-08-07T11:41:11;97316.38;;;14.91;65.91
1401;BME280;46518;48.842;8.926;2023-08-07T11:43:41;97311.84;;;14.97;66.22
1401;BME280;46518;48.842;8.926;2023-08-07T11:46:11;97306.81;;;14.85;65.99
1401;BME280;46518;48.842;8.926;2023-08-07T11:48:40;97302.34;;;14.80;65.57
1401;BME280;46518;48.842;8.926;2023-08-07T11:51:09;97310.28;;;14.96;65.26
1401;BME280;46518;48.842;8.926;2023-08-07T11:53:41;97291.41;;;15.02;65.82
1401;BME280;46518;48.842;8.926;2023-08-07T11:56:11;97306.28;;;15.03;66.50
1401;BME280;46518;48.842;8.926;2023-08-07T11:58:42;97292.72;;;15.20;67.93
1401;BME280;46518;48.842;8.926;2023-08-07T12:01:14;97309.41;;;15.26;64.42
1401;BME280;46518;48.842;8.926;2023-08-07T12:03:52;97300.94;;;15.19;64.56
1401;BME280;46518;48.842;8.926;2023-08-07T12:06:22;97308.88;;;15.24;66.29
1401;BME280;46518;48.842;8.926;2023-08-07T12:08:54;97313.31;;;15.44;68.00
1401;BME280;46518;48.842;8.926;2023-08-07T12:11:24;97309.28;;;15.51;68.08
1401;BME280;46518;48.842;8.926;2023-08-07T12:13:52;97308.50;;;15.51;67.24
1401;BME280;46518;48.842;8.926;2023-08-07T12:16:21;97317.22;;;15.57;69.09
1401;BME280;46518;48.842;8.926;2023-08-07T12:18:50;97321.50;;;15.42;67.52
1401;BME280;46518;48.842;8.926;2023-08-07T12:21:20;97304.31;;;15.35;71.59
1401;BME280;46518;48.842;8.926;2023-08-07T12:23:55;97314.34;;;15.53;70.33
1401;BME280;46518;48.842;8.926;2023-08-07T12:26:23;97314.53;;;15.62;66.29
1401;BME280;46518;48.842;8.926;2023-08-07T12:28:52;97307.59;;;15.81;68.27
1401;BME280;46518;48.842;8.926;2023-08-07T12:31:20;97304.94;;;15.81;65.23
1401;BME280;46518;48.842;8.926;2023-08-07T12:33:48;97303.25;;;15.95;65.77
1401;BME280;46518;48.842;8.926;2023-08-07T12:36:17;97295.75;;;16.08;66.95
1401;BME280;46518;48.842;8.926;2023-08-07T12:38:47;97305.53;;;16.12;64.55
1401;BME280;46518;48.842;8.926;2023-08-07T12:41:16;97302.06;;;16.12;61.00
1401;BME280;46518;48.842;8.926;2023-08-07T12:43:47;97307.94;;;16.09;61.34
1401;BME280;46518;48.842;8.926;2023-08-07T12:46:15;97293.41;;;16.01;58.40
1401;BME280;46518;48.842;8.926;2023-08-07T12:48:47;97306.75;;;15.91;61.42
1401;BME280;46518;48.842;8.926;2023-08-07T12:51:16;97299.00;;;15.94;59.77
1401;BME280;46518;48.842;8.926;2023-08-07T12:53:44;97303.78;;;15.98;59.92
1401;BME280;46518;48.842;8.926;2023-08-07T12:56:15;97302.16;;;16.02;62.26
1401;BME280;46518;48.842;8.926;2023-08-07T12:58:44;97311.19;;;16.01;63.65
1401;BME280;46518;48.842;8.926;2023-08-07T13:01:13;97301.16;;;15.87;63.44
1401;BME280;46518;48.842;8.926;2023-08-07T13:03:41;97306.91;;;16.05;64.64
1401;BME280;46518;48.842;8.926;2023-08-07T13:06:10;97310.44;;;15.90;63.53
1401;BME280;46518;48.842;8.926;2023-08-07T13:08:39;97302.38;;;16.10;64.39
1401;BME280;46518;48.842;8.926;2023-08-07T13:11:08;97299.31;;;16.27;63.57
1401;BME280;46518;48.842;8.926;2023-08-07T13:13:37;97306.16;;;16.38;64.84
1401;BME280;46518;48.842;8.926;2023-08-07T13:16:06;97291.91;;;16.58;66.27
1401;BME280;46518;48.842;8.926;2023-08-07T13:18:34;97294.47;;;16.69;61.58